Nuremberg Airport

EDDN · Bavaria, Germany

METAR history EDDN · Nuremberg Airport

Below you see METARs of the last few days. Select a year to browse through older METARs, from the year 2007 onwards.

May 25, 2024

Time Code Weather Temp. Visibility Ceiling Wind METAR/SPECI
16:20
V
20 °C 10 km+ - 240° 240° 4 kt METAR EDDN 251420Z AUTO 24004KT 190V300 9999 SHRA FEW///CB 20/09 Q1017 TEMPO NSW
15:50
V
20 °C 10 km+ - Var Var 4 kt METAR EDDN 251350Z AUTO VRB04KT 9999 VCSH FEW///TCU 20/10 Q1017 TEMPO SHRA BKN035CB
15:20
V
20 °C 10 km+ - 280° 280° 4 kt METAR EDDN 251320Z AUTO 28004KT 230V350 9999 FEW043 20/10 Q1017 NOSIG
14:50
V
21 °C 10 km+ - Var Var 2 kt METAR EDDN 251250Z AUTO VRB02KT CAVOK 21/10 Q1017 NOSIG
14:20
V
20 °C 10 km+ - 270° 270° 4 kt METAR EDDN 251220Z AUTO 27004KT 210V320 CAVOK 20/09 Q1017 NOSIG
13:50
V
20 °C 10 km+ - Var Var 5 kt METAR EDDN 251150Z AUTO VRB05KT 9999 FEW035 20/10 Q1018 NOSIG
13:20
V
20 °C 10 km+ - Var Var 3 kt METAR EDDN 251120Z AUTO VRB03KT 9999 FEW035 20/10 Q1018 NOSIG
12:50
V
19 °C 10 km+ - Var Var 4 kt METAR EDDN 251050Z AUTO VRB04KT CAVOK 19/11 Q1018 NOSIG
12:20
V
19 °C 10 km+ - Var Var 3 kt METAR EDDN 251020Z AUTO VRB03KT 9999 FEW036 19/11 Q1018 NOSIG
11:50
V
18 °C 10 km+ - Var Var 2 kt METAR EDDN 250950Z AUTO VRB02KT CAVOK 18/11 Q1018 NOSIG
11:20
V
18 °C 10 km+ - Var Var 2 kt METAR EDDN 250920Z AUTO VRB02KT 9999 FEW021 18/11 Q1018 NOSIG
10:50
M
18 °C 10 km+ 2,700 ft Var Var 2 kt METAR EDDN 250850Z AUTO VRB02KT 9999 SCT018 SCT022 BKN027 18/12 Q1018 NOSIG
10:20
V
17 °C 10 km+ - Var Var 2 kt METAR EDDN 250820Z AUTO VRB02KT 9999 SCT016 SCT025 17/11 Q1018 NOSIG
09:50
M
17 °C 10 km+ 2,400 ft Var Var 1 kt METAR EDDN 250750Z AUTO VRB01KT 9999 SCT015 BKN024 17/11 Q1018 NOSIG
09:20
M
16 °C 10 km+ 2,200 ft Var Var 2 kt METAR EDDN 250720Z AUTO VRB02KT 9999 SCT015 OVC022 16/11 Q1018 NOSIG
08:50
V
16 °C 10 km+ - Var Var 2 kt METAR EDDN 250650Z AUTO VRB02KT 9999 FEW011 SCT020 16/11 Q1018 NOSIG
08:20
V
14 °C 10 km+ - Var Var 1 kt METAR EDDN 250620Z AUTO VRB01KT CAVOK 14/11 Q1018 NOSIG
07:50
V
13 °C 10 km+ - Var Var 1 kt METAR EDDN 250550Z AUTO VRB01KT 9999 VCSH FEW018 FEW///CB 13/11 Q1018 NOSIG
07:20
V
12 °C 10 km+ - Var Var 2 kt METAR EDDN 250520Z AUTO VRB02KT 9999 VCSH FEW///CB 12/11 Q1018 TEMPO SHRA
06:50
V
11 °C 10 km+ - Var Var 2 kt METAR EDDN 250450Z AUTO VRB02KT CAVOK 11/10 Q1018 NOSIG
06:20
V
10 °C 10 km+ - 100° 100° 3 kt METAR EDDN 250420Z AUTO 10003KT 060V120 CAVOK 10/10 Q1018 NOSIG
05:50
V
10 °C 10 km+ - Var Var 1 kt METAR EDDN 250350Z AUTO VRB01KT 9999 FEW031 10/10 Q1018
05:20
V
10 °C 10 km+ - 090° 090° 4 kt METAR EDDN 250320Z AUTO 09004KT 9999 FEW031 10/09 Q1018
04:50
V
11 °C 10 km+ - Var Var 2 kt METAR EDDN 250250Z AUTO VRB02KT CAVOK 11/10 Q1018
04:20
V
11 °C 10 km+ - 160° 160° 3 kt METAR EDDN 250220Z AUTO 16003KT 120V180 9999 FEW025 11/10 Q1018
03:50
I
11 °C 4 km - 190° 190° 3 kt METAR EDDN 250150Z AUTO 19003KT 9999 4000 BR FEW029 11/10 Q1018
03:20
V
11 °C 10 km+ - Var Var 2 kt METAR EDDN 250120Z AUTO VRB02KT CAVOK 11/10 Q1018
02:50
V
11 °C 10 km+ - Var Var 2 kt METAR EDDN 250050Z AUTO VRB02KT CAVOK 11/10 Q1018
02:20
V
12 °C 10 km+ - Var Var 2 kt METAR EDDN 250020Z AUTO VRB02KT CAVOK 12/10 Q1018
01:50
V
12 °C 10 km+ - 220° 220° 3 kt METAR EDDN 242350Z AUTO 22003KT CAVOK 12/10 Q1018
01:20
L
12 °C 1.1 km - Var Var 2 kt METAR EDDN 242320Z AUTO VRB02KT 8000 1100 R28/1600U BR NSC 12/10 Q1018
00:50
V
12 °C 8 km - 260° 260° 4 kt METAR EDDN 242250Z AUTO 26004KT 8000 NSC 12/10 Q1018
00:20
I
12 °C 1.8 km - 260° 260° 1 kt METAR EDDN 242220Z AUTO 26001KT 9000 1800 BR NSC 12/11 Q1018

May 24, 2024

Time Code Weather Temp. Visibility Ceiling Wind METAR/SPECI
23:50
L
13 °C 1.2 km - Var Var 1 kt METAR EDDN 242150Z AUTO VRB01KT 7000 1200 R10/P2000N BR NSC 13/11 Q1017
23:20
L
14 °C 1.1 km - Var Var 1 kt METAR EDDN 242120Z AUTO VRB01KT 9999 1100 R10/P2000N VCSH BR FEW///TCU 14/11 Q1017
22:50
V
14 °C 10 km+ - 260° 260° 5 kt METAR EDDN 242050Z AUTO 26005KT 9999 FEW041 14/12 Q1017
22:20
V
14 °C 10 km+ - 300° 300° 3 kt METAR EDDN 242020Z AUTO 30003KT 9999 FEW049 14/13 Q1017
21:50
V
14 °C 10 km+ - 300° 300° 2 kt METAR EDDN 241950Z AUTO 30002KT 9999 FEW031 14/13 Q1017 TEMPO FM2130 25010KT SHRA SCT045CB
21:20
V
14 °C 10 km+ - Var Var 2 kt METAR EDDN 241920Z AUTO VRB02KT CAVOK 14/13 Q1017 BECMG FM2100 25007KT
20:50
V
15 °C 10 km+ - Var Var 1 kt METAR EDDN 241850Z AUTO VRB01KT 9999 FEW035 15/13 Q1016 NOSIG
20:20
V
16 °C 10 km+ 4,200 ft 360° 360° 2 kt METAR EDDN 241820Z AUTO 36002KT 9999 SCT035 BKN042 16/13 Q1016 NOSIG
19:50
V
17 °C 10 km+ 4,900 ft Var Var 2 kt METAR EDDN 241750Z AUTO VRB02KT 9999 FEW040 BKN049 17/13 Q1016 NOSIG
19:20
V
17 °C 10 km+ - 080° 080° 5 kt METAR EDDN 241720Z AUTO 08005KT 9999 -SHRA FEW037 SCT046 FEW///TCU 17/12 Q1016 NOSIG
18:50
V
18 °C 10 km+ - Var Var 2 kt METAR EDDN 241650Z AUTO VRB02KT 9999 VCSH FEW030 FEW///TCU 18/12 Q1016 NOSIG
18:20
V
18 °C 10 km+ - Var Var 2 kt METAR EDDN 241620Z AUTO VRB02KT 9999 -SHRA FEW///CB 18/12 Q1016 NOSIG
17:50
V
18 °C 10 km+ - 010° 010° 5 kt METAR EDDN 241550Z AUTO 01005KT 9999 -SHRA FEW031 FEW///CB 18/12 Q1016 NOSIG
17:20
V
18 °C 10 km+ 3,200 ft Var Var 2 kt METAR EDDN 241520Z AUTO VRB02KT 9999 -SHRA BKN032 BKN038 FEW///TCU 18/12 Q1016 NOSIG
16:50
V
18 °C 10 km+ 3,300 ft 020° 020° 3 kt METAR EDDN 241450Z AUTO 02003KT 330V060 9999 -SHRA BKN033 BKN043 FEW///CB 18/12 Q1016 RESHRA NOSIG
16:20
V
18 °C 10 km+ 4,000 ft Var Var 2 kt METAR EDDN 241420Z AUTO VRB02KT 9999 -SHRA FEW033 BKN040 BKN049 FEW///CB 18/12 Q1016 NOSIG
15:50
V
18 °C 10 km+ 4,100 ft 040° 040° 3 kt METAR EDDN 241350Z AUTO 04003KT 340V070 9999 FEW035 BKN041 BKN048 18/11 Q1017 NOSIG
15:20
V
18 °C 10 km+ 4,000 ft Var Var 2 kt METAR EDDN 241320Z AUTO VRB02KT 9999 SCT031 BKN040 BKN047 18/12 Q1017 NOSIG
14:50
V
19 °C 10 km+ 3,100 ft Var Var 3 kt METAR EDDN 241250Z AUTO VRB03KT 9999 BKN031 BKN045 19/12 Q1017 NOSIG
14:20
M
18 °C 10 km+ 2,600 ft 200° 200° 4 kt METAR EDDN 241220Z AUTO 20004KT 130V260 9999 VCSH BKN026 FEW///TCU 18/11 Q1017
13:50
V
18 °C 10 km+ - Var Var 2 kt METAR EDDN 241150Z AUTO VRB02KT 9999 FEW027 18/12 Q1017 NOSIG
13:20
V
18 °C 10 km+ - 090° 090° 3 kt METAR EDDN 241120Z AUTO 09003KT 010V170 CAVOK 18/11 Q1018 NOSIG
12:50
V
17 °C 10 km+ 4,600 ft Var Var 2 kt METAR EDDN 241050Z AUTO VRB02KT 9999 BKN046 17/11 Q1018 NOSIG
12:20
V
16 °C 10 km+ 3,600 ft 190° 190° 3 kt METAR EDDN 241020Z AUTO 19003KT 160V250 9999 FEW019 BKN036 OVC047 16/11 Q1018 NOSIG
11:50
M
16 °C 10 km+ 1,900 ft 190° 190° 4 kt METAR EDDN 240950Z AUTO 19004KT 170V230 9999 BKN019 BKN038 OVC047 16/11 Q1018 NOSIG
11:20
V
16 °C 10 km+ 3,600 ft 120° 120° 3 kt METAR EDDN 240920Z AUTO 12003KT 070V190 9999 FEW018 BKN036 OVC043 16/11 Q1018 NOSIG
10:50
V
16 °C 10 km+ 3,800 ft 110° 110° 4 kt METAR EDDN 240850Z AUTO 11004KT 050V180 9999 SCT017 SCT021 OVC038 16/11 Q1018 NOSIG
10:20
V
16 °C 10 km+ 4,100 ft 130° 130° 3 kt METAR EDDN 240820Z AUTO 13003KT 070V210 9999 FEW015 SCT034 OVC041 16/12 Q1018 NOSIG
09:50
M
15 °C 10 km+ 2,900 ft 150° 150° 3 kt METAR EDDN 240750Z AUTO 15003KT 100V200 9999 FEW016 BKN029 OVC033 15/12 Q1018 NOSIG
09:20
M
15 °C 10 km+ 2,200 ft 170° 170° 4 kt METAR EDDN 240720Z AUTO 17004KT 100V230 9999 SCT014 BKN022 BKN030 15/11 Q1018 TEMPO BKN012
08:50
V
15 °C 10 km+ - 150° 150° 3 kt METAR EDDN 240650Z AUTO 15003KT 080V200 9999 FEW012 15/12 Q1018 TEMPO BKN010
08:20
V
15 °C 10 km+ - 200° 200° 4 kt METAR EDDN 240620Z AUTO 20004KT 150V230 9999 FEW010 15/12 Q1017 NOSIG
07:50
M
14 °C 10 km+ 2,200 ft 170° 170° 6 kt METAR EDDN 240550Z AUTO 17006KT 140V200 9999 FEW008 BKN022 OVC027 14/12 Q1018 TEMPO BKN009
07:20
M
14 °C 10 km+ 1,800 ft 180° 180° 5 kt METAR EDDN 240520Z AUTO 18005KT 9999 FEW007 BKN018 OVC026 14/12 Q1017 TEMPO BKN008
06:50
M
13 °C 10 km+ 1,900 ft 150° 150° 4 kt METAR EDDN 240450Z AUTO 15004KT 9999 OVC019 13/12 Q1017 TEMPO BKN008
06:20
I
13 °C 10 km+ 500 ft 120° 120° 4 kt METAR EDDN 240420Z AUTO 12004KT 090V150 9999 BKN005 OVC019 13/13 Q1017 TEMPO SCT006 BKN015
05:50
M
13 °C 10 km+ 1,700 ft Var Var 2 kt METAR EDDN 240350Z AUTO VRB02KT 9999 SCT006 OVC017 OVC049 13/13 Q1017
05:20
I
13 °C 10 km+ 800 ft 040° 040° 3 kt METAR EDDN 240320Z AUTO 04003KT 9999 SCT005 BKN008 13/12 Q1017
04:50
I
13 °C 10 km+ 800 ft Var Var 1 kt METAR EDDN 240250Z AUTO VRB01KT 9999 BKN008 BKN015 13/12 Q1017
04:20
I
13 °C 10 km+ 500 ft 230° 230° 3 kt METAR EDDN 240220Z AUTO 23003KT 200V280 9999 -SHRA BKN005 BKN009 BKN017 FEW///TCU 13/12 Q1017
03:50
I
13 °C 10 km+ 600 ft Var Var 2 kt METAR EDDN 240150Z AUTO VRB02KT 9999 -SHRA BKN006 BKN017 FEW///CB 13/12 Q1017
03:20
I
13 °C 10 km+ 600 ft 290° 290° 3 kt METAR EDDN 240120Z AUTO 29003KT 9999 -RA BKN006 BKN011 OVC016 13/13 Q1017
02:50
M
13 °C 10 km+ 1,300 ft Var Var 2 kt METAR EDDN 240050Z AUTO VRB02KT 9999 -RA SCT006 OVC013 13/12 Q1017
02:20
I
13 °C 10 km+ 900 ft 190° 190° 3 kt METAR EDDN 240020Z AUTO 19003KT 9999 -RA SCT005 BKN009 OVC012 13/13 Q1017
01:50
I
14 °C 10 km+ 600 ft 260° 260° 3 kt METAR EDDN 232350Z AUTO 26003KT 210V320 9999 -DZ BKN006 BKN011 BKN018 14/13 Q1017
01:20
M
13 °C 10 km+ 1,300 ft Var Var 2 kt METAR EDDN 232320Z AUTO VRB02KT 9999 -RA SCT005 BKN013 OVC018 13/13 Q1017 RERA
00:50
M
13 °C 10 km+ 1,300 ft 150° 150° 1 kt METAR EDDN 232250Z AUTO 15001KT 9999 -RA FEW005 SCT009 BKN013 13/13 Q1017 RESHRA
00:20
M
13 °C 6 km - 160° 160° 3 kt METAR EDDN 232220Z AUTO 16003KT 130V200 6000 SHRA FEW008 FEW///TCU 13/13 Q1017

May 23, 2024

Time Code Weather Temp. Visibility Ceiling Wind METAR/SPECI
23:50
V
14 °C 10 km+ - 220° 220° 3 kt METAR EDDN 232150Z AUTO 22003KT 150V270 9999 -RA NSC 14/13 Q1017 RESHRA
23:20
M
14 °C 7 km - 270° 270° 6 kt METAR EDDN 232120Z AUTO 27006KT 230V300 7000 SHRA FEW013 FEW///CB 14/13 Q1017 RETS
22:50
M
14 °C 7 km - 240° 240° 7 kt METAR EDDN 232050Z AUTO 24007KT 200V270 7000 SHRA FEW015 SCT045 FEW///CB 14/12 Q1017
22:20
V
15 °C 10 km+ - 250° 250° 10 kt METAR EDDN 232020Z AUTO 25010KT 220V280 9999 SHRA FEW///TCU 15/11 Q1016
21:50
V
15 °C 10 km+ - 220° 220° 12 kt METAR EDDN 231950Z AUTO 22012KT 190V260 9999 -RA NSC 15/11 Q1016 TEMPO SHRA
21:20
V
17 °C 10 km+ - Var Var 7 kt METAR EDDN 231920Z AUTO VRB07KT 9999 -SHRA FEW///TCU 17/11 Q1015 BECMG 23010KT SHRA SCT045CB
20:50
V
19 °C 10 km+ - 010° 010° 7 kt METAR EDDN 231850Z AUTO 01007KT CAVOK 19/11 Q1015 BECMG 25012KT SHRA SCT045CB
20:20
V
19 °C 10 km+ - 020° 020° 5 kt METAR EDDN 231820Z AUTO 02005KT CAVOK 19/11 Q1015 TEMPO 24010KT SHRA SCT040CB
19:50
V
20 °C 10 km+ - 010° 010° 5 kt METAR EDDN 231750Z AUTO 01005KT CAVOK 20/10 Q1014 TEMPO SHRA SCT040CB
19:20
V
20 °C 10 km+ - 010° 010° 5 kt METAR EDDN 231720Z AUTO 01005KT CAVOK 20/10 Q1014 NOSIG
18:50
V
21 °C 10 km+ - 350° 350° 8 kt METAR EDDN 231650Z AUTO 35008KT 320V020 CAVOK 21/10 Q1014 NOSIG
18:20
V
21 °C 10 km+ - 350° 350° 6 kt METAR EDDN 231620Z AUTO 35006KT 310V010 CAVOK 21/10 Q1014 NOSIG
17:50
V
21 °C 10 km+ - 040° 040° 5 kt METAR EDDN 231550Z AUTO 04005KT 010V090 CAVOK 21/09 Q1014 NOSIG
17:20
V
21 °C 10 km+ - 310° 310° 6 kt METAR EDDN 231520Z AUTO 31006KT 250V350 CAVOK 21/10 Q1014 NOSIG
16:50
V
22 °C 10 km+ - 340° 340° 6 kt METAR EDDN 231450Z AUTO 34006KT 270V040 CAVOK 22/10 Q1014 NOSIG
16:20
V
22 °C 10 km+ - 280° 280° 6 kt METAR EDDN 231420Z AUTO 28006KT 160V330 CAVOK 22/09 Q1014 NOSIG
15:50
V
22 °C 10 km+ - Var Var 4 kt METAR EDDN 231350Z AUTO VRB04KT CAVOK 22/09 Q1014 NOSIG
15:20
V
21 °C 10 km+ - Var Var 3 kt METAR EDDN 231320Z AUTO VRB03KT 9999 FEW049 21/09 Q1015 NOSIG
14:50
V
20 °C 10 km+ - 320° 320° 5 kt METAR EDDN 231250Z AUTO 32005KT 280V360 9999 FEW047 20/10 Q1015 NOSIG
14:20
V
20 °C 10 km+ - 290° 290° 7 kt METAR EDDN 231220Z AUTO 29007KT 250V310 CAVOK 20/10 Q1015 NOSIG
13:50
V
21 °C 10 km+ - 280° 280° 6 kt METAR EDDN 231150Z AUTO 28006KT 200V010 CAVOK 21/10 Q1015 NOSIG
13:20
V
21 °C 10 km+ - 250° 250° 5 kt METAR EDDN 231120Z AUTO 25005KT 200V290 CAVOK 21/09 Q1015 NOSIG
12:50
V
22 °C 10 km+ - Var Var 3 kt METAR EDDN 231050Z AUTO VRB03KT 9999 FEW042 22/10 Q1016 NOSIG
12:20
V
20 °C 10 km+ - Var Var 4 kt METAR EDDN 231020Z AUTO VRB04KT 9999 FEW042 20/09 Q1016 NOSIG
11:50
V
19 °C 10 km+ - Var Var 3 kt METAR EDDN 230950Z AUTO VRB03KT 9999 FEW038 19/10 Q1016 NOSIG
11:20
V
20 °C 10 km+ - 200° 200° 4 kt METAR EDDN 230920Z AUTO 20004KT 140V290 CAVOK 20/10 Q1016 NOSIG
10:50
V
20 °C 10 km+ - Var Var 2 kt METAR EDDN 230850Z AUTO VRB02KT CAVOK 20/10 Q1016 NOSIG
10:20
V
19 °C 10 km+ - Var Var 2 kt METAR EDDN 230820Z AUTO VRB02KT CAVOK 19/11 Q1016 NOSIG
09:50
V
18 °C 10 km+ - Var Var 2 kt METAR EDDN 230750Z AUTO VRB02KT CAVOK 18/11 Q1016 NOSIG
09:20
V
18 °C 10 km+ - Var Var 1 kt METAR EDDN 230720Z AUTO VRB01KT CAVOK 18/11 Q1016 NOSIG
08:50
V
17 °C 10 km+ - Var Var 2 kt METAR EDDN 230650Z AUTO VRB02KT CAVOK 17/11 Q1016 NOSIG
08:20
V
16 °C 10 km+ - Var Var 2 kt METAR EDDN 230620Z AUTO VRB02KT CAVOK 16/11 Q1016 NOSIG
07:50
V
15 °C 10 km+ - Var Var 2 kt METAR EDDN 230550Z AUTO VRB02KT CAVOK 15/11 Q1016 NOSIG
Report a change